sensor_id;sensor_type;location;lat;lon;timestamp;P1;durP1;ratioP1;P2;durP2;ratioP2
71395;SDS011;59888;55.814;37.132;2024-03-25T00:00:15;0.80;;;0.50;;
71395;SDS011;59888;55.814;37.132;2024-03-25T00:02:42;0.32;;;0.30;;
71395;SDS011;59888;55.814;37.132;2024-03-25T00:05:08;0.88;;;0.43;;
71395;SDS011;59888;55.814;37.132;2024-03-25T00:07:39;0.45;;;0.32;;
71395;SDS011;59888;55.814;37.132;2024-03-25T00:10:07;0.70;;;0.40;;
71395;SDS011;59888;55.814;37.132;2024-03-25T00:12:35;0.38;;;0.38;;
71395;SDS011;59888;55.814;37.132;2024-03-25T00:15:01;0.40;;;0.40;;
71395;SDS011;59888;55.814;37.132;2024-03-25T00:17:32;0.55;;;0.35;;
71395;SDS011;59888;55.814;37.132;2024-03-25T00:19:58;0.50;;;0.30;;
71395;SDS011;59888;55.814;37.132;2024-03-25T00:22:24;0.30;;;0.30;;
71395;SDS011;59888;55.814;37.132;2024-03-25T00:24:52;0.38;;;0.30;;
71395;SDS011;59888;55.814;37.132;2024-03-25T00:27:18;0.22;;;0.22;;
71395;SDS011;59888;55.814;37.132;2024-03-25T00:29:44;0.40;;;0.32;;
71395;SDS011;59888;55.814;37.132;2024-03-25T00:32:11;0.30;;;0.30;;
71395;SDS011;59888;55.814;37.132;2024-03-25T00:34:37;0.30;;;0.30;;
71395;SDS011;59888;55.814;37.132;2024-03-25T00:37:03;0.82;;;0.40;;
71395;SDS011;59888;55.814;37.132;2024-03-25T00:39:30;0.40;;;0.30;;
71395;SDS011;59888;55.814;37.132;2024-03-25T00:41:58;0.63;;;0.40;;
71395;SDS011;59888;55.814;37.132;2024-03-25T00:44:24;0.30;;;0.30;;
71395;SDS011;59888;55.814;37.132;2024-03-25T00:46:50;0.98;;;0.40;;
71395;SDS011;59888;55.814;37.132;2024-03-25T00:49:17;0.40;;;0.40;;
71395;SDS011;59888;55.814;37.132;2024-03-25T00:51:43;0.52;;;0.40;;
71395;SDS011;59888;55.814;37.132;2024-03-25T00:54:09;0.77;;;0.40;;
71395;SDS011;59888;55.814;37.132;2024-03-25T00:56:35;0.57;;;0.40;;
71395;SDS011;59888;55.814;37.132;2024-03-25T00:59:01;0.30;;;0.30;;
71395;SDS011;59888;55.814;37.132;2024-03-25T01:01:29;0.40;;;0.40;;
71395;SDS011;59888;55.814;37.132;2024-03-25T01:03:55;0.93;;;0.40;;
71395;SDS011;59888;55.814;37.132;2024-03-25T01:06:21;0.52;;;0.40;;
71395;SDS011;59888;55.814;37.132;2024-03-25T01:08:48;0.80;;;0.50;;
71395;SDS011;59888;55.814;37.132;2024-03-25T01:11:14;0.90;;;0.50;;
71395;SDS011;59888;55.814;37.132;2024-03-25T01:13:41;1.27;;;0.50;;
71395;SDS011;59888;55.814;37.132;2024-03-25T01:16:08;0.82;;;0.50;;
71395;SDS011;59888;55.814;37.132;2024-03-25T01:18:34;1.48;;;0.47;;
71395;SDS011;59888;55.814;37.132;2024-03-25T01:21:00;0.65;;;0.60;;
71395;SDS011;59888;55.814;37.132;2024-03-25T01:23:27;0.77;;;0.52;;
71395;SDS011;59888;55.814;37.132;2024-03-25T01:25:53;0.75;;;0.47;;
71395;SDS011;59888;55.814;37.132;2024-03-25T01:28:19;0.70;;;0.50;;
71395;SDS011;59888;55.814;37.132;2024-03-25T01:30:45;0.60;;;0.47;;
71395;SDS011;59888;55.814;37.132;2024-03-25T01:33:11;0.98;;;0.60;;
71395;SDS011;59888;55.814;37.132;2024-03-25T01:35:37;0.47;;;0.40;;
71395;SDS011;59888;55.814;37.132;2024-03-25T01:38:04;0.80;;;0.50;;
71395;SDS011;59888;55.814;37.132;2024-03-25T01:40:30;1.08;;;0.50;;
71395;SDS011;59888;55.814;37.132;2024-03-25T01:42:56;1.23;;;0.60;;
71395;SDS011;59888;55.814;37.132;2024-03-25T01:45:28;1.17;;;0.63;;
71395;SDS011;59888;55.814;37.132;2024-03-25T01:47:56;1.98;;;1.00;;
71395;SDS011;59888;55.814;37.132;2024-03-25T01:50:24;1.58;;;0.80;;
71395;SDS011;59888;55.814;37.132;2024-03-25T01:52:52;3.53;;;0.60;;
71395;SDS011;59888;55.814;37.132;2024-03-25T01:55:20;1.00;;;0.57;;
71395;SDS011;59888;55.814;37.132;2024-03-25T01:57:48;1.52;;;0.80;;
71395;SDS011;59888;55.814;37.132;2024-03-25T02:03:00;3.13;;;0.60;;
71395;SDS011;59888;55.814;37.132;2024-03-25T02:05:27;2.08;;;0.70;;
71395;SDS011;59888;55.814;37.132;2024-03-25T02:07:53;1.70;;;0.90;;
71395;SDS011;59888;55.814;37.132;2024-03-25T02:10:21;2.22;;;0.77;;
71395;SDS011;59888;55.814;37.132;2024-03-25T02:12:48;3.05;;;0.70;;
71395;SDS011;59888;55.814;37.132;2024-03-25T02:15:16;1.15;;;0.70;;
71395;SDS011;59888;55.814;37.132;2024-03-25T02:17:44;1.85;;;0.70;;
71395;SDS011;59888;55.814;37.132;2024-03-25T02:20:10;1.25;;;0.88;;
71395;SDS011;59888;55.814;37.132;2024-03-25T02:22:41;1.20;;;0.60;;
71395;SDS011;59888;55.814;37.132;2024-03-25T02:25:09;1.00;;;0.65;;
71395;SDS011;59888;55.814;37.132;2024-03-25T02:27:36;1.23;;;0.70;;
71395;SDS011;59888;55.814;37.132;2024-03-25T02:30:07;1.77;;;0.70;;
71395;SDS011;59888;55.814;37.132;2024-03-25T02:32:38;1.85;;;0.70;;
71395;SDS011;59888;55.814;37.132;2024-03-25T02:35:05;1.30;;;0.70;;
71395;SDS011;59888;55.814;37.132;2024-03-25T02:37:33;2.85;;;0.82;;
71395;SDS011;59888;55.814;37.132;2024-03-25T02:40:00;1.70;;;0.90;;
71395;SDS011;59888;55.814;37.132;2024-03-25T02:42:30;1.70;;;0.80;;
71395;SDS011;59888;55.814;37.132;2024-03-25T02:44:56;1.10;;;0.60;;
71395;SDS011;59888;55.814;37.132;2024-03-25T02:47:23;0.98;;;0.50;;
71395;SDS011;59888;55.814;37.132;2024-03-25T02:49:50;1.05;;;0.65;;
71395;SDS011;59888;55.814;37.132;2024-03-25T02:52:17;1.83;;;0.82;;
71395;SDS011;59888;55.814;37.132;2024-03-25T02:54:44;1.08;;;0.70;;
71395;SDS011;59888;55.814;37.132;2024-03-25T02:57:10;1.00;;;0.60;;
71395;SDS011;59888;55.814;37.132;2024-03-25T02:59:36;1.05;;;0.60;;
71395;SDS011;59888;55.814;37.132;2024-03-25T03:02:03;1.83;;;0.57;;
71395;SDS011;59888;55.814;37.132;2024-03-25T03:04:29;1.02;;;0.52;;
71395;SDS011;59888;55.814;37.132;2024-03-25T03:06:55;0.80;;;0.50;;
71395;SDS011;59888;55.814;37.132;2024-03-25T03:09:22;0.93;;;0.50;;
71395;SDS011;59888;55.814;37.132;2024-03-25T03:11:48;0.93;;;0.50;;
71395;SDS011;59888;55.814;37.132;2024-03-25T03:14:14;1.55;;;0.60;;
71395;SDS011;59888;55.814;37.132;2024-03-25T03:16:41;1.20;;;0.60;;
71395;SDS011;59888;55.814;37.132;2024-03-25T03:19:07;0.82;;;0.60;;
71395;SDS011;59888;55.814;37.132;2024-03-25T03:21:35;0.80;;;0.47;;
71395;SDS011;59888;55.814;37.132;2024-03-25T03:24:03;1.55;;;0.50;;
71395;SDS011;59888;55.814;37.132;2024-03-25T03:26:29;1.02;;;0.82;;
71395;SDS011;59888;55.814;37.132;2024-03-25T03:28:56;1.08;;;0.60;;
71395;SDS011;59888;55.814;37.132;2024-03-25T03:31:24;1.30;;;0.50;;
71395;SDS011;59888;55.814;37.132;2024-03-25T03:33:52;0.57;;;0.43;;
71395;SDS011;59888;55.814;37.132;2024-03-25T03:36:20;1.30;;;0.60;;
71395;SDS011;59888;55.814;37.132;2024-03-25T03:38:51;1.90;;;0.52;;
71395;SDS011;59888;55.814;37.132;2024-03-25T03:41:17;1.20;;;0.68;;
71395;SDS011;59888;55.814;37.132;2024-03-25T03:43:44;2.38;;;0.60;;
71395;SDS011;59888;55.814;37.132;2024-03-25T03:46:11;0.85;;;0.50;;
71395;SDS011;59888;55.814;37.132;2024-03-25T03:48:37;2.15;;;0.60;;
71395;SDS011;59888;55.814;37.132;2024-03-25T03:51:04;1.50;;;0.73;;
71395;SDS011;59888;55.814;37.132;2024-03-25T03:53:32;1.02;;;0.50;;
71395;SDS011;59888;55.814;37.132;2024-03-25T03:55:59;0.80;;;0.47;;
71395;SDS011;59888;55.814;37.132;2024-03-25T03:58:33;1.10;;;0.65;;
71395;SDS011;59888;55.814;37.132;2024-03-25T04:01:00;0.82;;;0.60;;
71395;SDS011;59888;55.814;37.132;2024-03-25T04:03:27;1.17;;;0.60;;
71395;SDS011;59888;55.814;37.132;2024-03-25T04:05:53;1.23;;;0.65;;
71395;SDS011;59888;55.814;37.132;2024-03-25T04:08:20;1.35;;;0.70;;
71395;SDS011;59888;55.814;37.132;2024-03-25T04:10:46;1.92;;;0.70;;
71395;SDS011;59888;55.814;37.132;2024-03-25T04:13:12;1.35;;;0.70;;
71395;SDS011;59888;55.814;37.132;2024-03-25T04:15:39;1.65;;;0.70;;
71395;SDS011;59888;55.814;37.132;2024-03-25T04:18:08;0.73;;;0.50;;
71395;SDS011;59888;55.814;37.132;2024-03-25T04:20:38;1.42;;;0.70;;
71395;SDS011;59888;55.814;37.132;2024-03-25T04:23:05;1.13;;;0.55;;
71395;SDS011;59888;55.814;37.132;2024-03-25T04:25:35;2.20;;;0.65;;
71395;SDS011;59888;55.814;37.132;2024-03-25T04:28:04;1.70;;;0.65;;
71395;SDS011;59888;55.814;37.132;2024-03-25T04:30:31;1.30;;;0.60;;
71395;SDS011;59888;55.814;37.132;2024-03-25T04:33:00;2.25;;;0.95;;
71395;SDS011;59888;55.814;37.132;2024-03-25T04:35:26;1.05;;;0.60;;
71395;SDS011;59888;55.814;37.132;2024-03-25T04:37:53;1.13;;;0.57;;
71395;SDS011;59888;55.814;37.132;2024-03-25T04:40:21;1.00;;;0.60;;
71395;SDS011;59888;55.814;37.132;2024-03-25T04:42:48;1.23;;;0.73;;
71395;SDS011;59888;55.814;37.132;2024-03-25T04:45:14;1.95;;;0.80;;
71395;SDS011;59888;55.814;37.132;2024-03-25T04:47:40;2.30;;;0.60;;
71395;SDS011;59888;55.814;37.132;2024-03-25T04:50:07;2.10;;;0.80;;
71395;SDS011;59888;55.814;37.132;2024-03-25T04:52:33;1.33;;;0.65;;
71395;SDS011;59888;55.814;37.132;2024-03-25T04:55:00;0.93;;;0.60;;
71395;SDS011;59888;55.814;37.132;2024-03-25T04:57:25;0.57;;;0.50;;
71395;SDS011;59888;55.814;37.132;2024-03-25T04:59:52;1.00;;;0.70;;
71395;SDS011;59888;55.814;37.132;2024-03-25T05:02:20;1.00;;;0.60;;
71395;SDS011;59888;55.814;37.132;2024-03-25T05:04:46;1.65;;;0.70;;
71395;SDS011;59888;55.814;37.132;2024-03-25T05:07:11;1.30;;;0.70;;
71395;SDS011;59888;55.814;37.132;2024-03-25T05:09:39;1.95;;;0.90;;
71395;SDS011;59888;55.814;37.132;2024-03-25T05:12:05;6.95;;;1.60;;
71395;SDS011;59888;55.814;37.132;2024-03-25T05:14:31;1.05;;;0.60;;
71395;SDS011;59888;55.814;37.132;2024-03-25T05:16:58;4.55;;;0.90;;
71395;SDS011;59888;55.814;37.132;2024-03-25T05:19:24;2.05;;;0.80;;
71395;SDS011;59888;55.814;37.132;2024-03-25T05:21:50;1.75;;;0.90;;
71395;SDS011;59888;55.814;37.132;2024-03-25T05:24:16;3.38;;;0.77;;
71395;SDS011;59888;55.814;37.132;2024-03-25T05:26:42;2.00;;;0.70;;
71395;SDS011;59888;55.814;37.132;2024-03-25T05:29:08;1.42;;;0.80;;
71395;SDS011;59888;55.814;37.132;2024-03-25T05:31:36;1.08;;;0.60;;
71395;SDS011;59888;55.814;37.132;2024-03-25T05:34:02;2.50;;;0.82;;
71395;SDS011;59888;55.814;37.132;2024-03-25T05:36:34;1.50;;;0.80;;
71395;SDS011;59888;55.814;37.132;2024-03-25T05:39:00;2.08;;;0.80;;
71395;SDS011;59888;55.814;37.132;2024-03-25T05:41:26;2.08;;;0.80;;
71395;SDS011;59888;55.814;37.132;2024-03-25T05:43:52;1.30;;;0.70;;
71395;SDS011;59888;55.814;37.132;2024-03-25T05:46:19;2.22;;;0.90;;
71395;SDS011;59888;55.814;37.132;2024-03-25T05:48:45;3.30;;;1.05;;
71395;SDS011;59888;55.814;37.132;2024-03-25T05:51:11;4.28;;;0.95;;
71395;SDS011;59888;55.814;37.132;2024-03-25T05:53:38;1.80;;;0.90;;
71395;SDS011;59888;55.814;37.132;2024-03-25T05:56:04;1.38;;;0.80;;
71395;SDS011;59888;55.814;37.132;2024-03-25T05:58:30;3.90;;;1.10;;
71395;SDS011;59888;55.814;37.132;2024-03-25T06:00:57;2.10;;;1.00;;
71395;SDS011;59888;55.814;37.132;2024-03-25T06:03:23;1.95;;;0.82;;
71395;SDS011;59888;55.814;37.132;2024-03-25T06:05:49;2.63;;;1.10;;
71395;SDS011;59888;55.814;37.132;2024-03-25T06:08:15;2.67;;;0.95;;
71395;SDS011;59888;55.814;37.132;2024-03-25T06:10:46;1.98;;;0.95;;
71395;SDS011;59888;55.814;37.132;2024-03-25T06:13:12;2.00;;;0.80;;
71395;SDS011;59888;55.814;37.132;2024-03-25T06:15:39;2.90;;;0.90;;
71395;SDS011;59888;55.814;37.132;2024-03-25T06:18:05;2.13;;;0.82;;
71395;SDS011;59888;55.814;37.132;2024-03-25T06:20:31;2.72;;;0.90;;
71395;SDS011;59888;55.814;37.132;2024-03-25T06:22:57;3.08;;;0.90;;
71395;SDS011;59888;55.814;37.132;2024-03-25T06:25:23;3.78;;;1.10;;
71395;SDS011;59888;55.814;37.132;2024-03-25T06:27:49;3.88;;;1.30;;
71395;SDS011;59888;55.814;37.132;2024-03-25T06:30:15;2.63;;;0.98;;
71395;SDS011;59888;55.814;37.132;2024-03-25T06:35:44;2.58;;;1.00;;
71395;SDS011;59888;55.814;37.132;2024-03-25T06:38:10;3.95;;;1.23;;
71395;SDS011;59888;55.814;37.132;2024-03-25T06:40:37;3.97;;;0.90;;
71395;SDS011;59888;55.814;37.132;2024-03-25T06:43:04;3.88;;;0.90;;
71395;SDS011;59888;55.814;37.132;2024-03-25T06:45:31;4.50;;;1.05;;
71395;SDS011;59888;55.814;37.132;2024-03-25T06:47:57;3.63;;;0.80;;
71395;SDS011;59888;55.814;37.132;2024-03-25T06:50:25;4.18;;;1.00;;
71395;SDS011;59888;55.814;37.132;2024-03-25T06:52:52;5.30;;;0.98;;
71395;SDS011;59888;55.814;37.132;2024-03-25T06:55:18;3.53;;;0.95;;
71395;SDS011;59888;55.814;37.132;2024-03-25T06:57:48;3.13;;;0.90;;
71395;SDS011;59888;55.814;37.132;2024-03-25T07:00:15;5.28;;;1.10;;
71395;SDS011;59888;55.814;37.132;2024-03-25T07:02:41;6.13;;;1.20;;
71395;SDS011;59888;55.814;37.132;2024-03-25T07:05:08;2.80;;;0.90;;
71395;SDS011;59888;55.814;37.132;2024-03-25T07:07:34;1.98;;;0.90;;
71395;SDS011;59888;55.814;37.132;2024-03-25T07:10:01;2.92;;;1.00;;
71395;SDS011;59888;55.814;37.132;2024-03-25T07:12:32;2.88;;;0.90;;
71395;SDS011;59888;55.814;37.132;2024-03-25T07:14:59;2.47;;;0.70;;
71395;SDS011;59888;55.814;37.132;2024-03-25T07:17:26;3.58;;;1.10;;
71395;SDS011;59888;55.814;37.132;2024-03-25T07:19:53;2.20;;;0.98;;
71395;SDS011;59888;55.814;37.132;2024-03-25T07:22:19;2.05;;;0.80;;
71395;SDS011;59888;55.814;37.132;2024-03-25T07:24:45;2.63;;;0.90;;
71395;SDS011;59888;55.814;37.132;2024-03-25T07:27:12;2.63;;;1.00;;
71395;SDS011;59888;55.814;37.132;2024-03-25T07:29:39;4.07;;;0.80;;
71395;SDS011;59888;55.814;37.132;2024-03-25T07:32:06;3.90;;;1.00;;
71395;SDS011;59888;55.814;37.132;2024-03-25T07:34:32;2.35;;;1.02;;
71395;SDS011;59888;55.814;37.132;2024-03-25T07:36:58;1.65;;;0.80;;
71395;SDS011;59888;55.814;37.132;2024-03-25T07:39:24;2.70;;;0.88;;
71395;SDS011;59888;55.814;37.132;2024-03-25T07:41:50;2.83;;;0.90;;
71395;SDS011;59888;55.814;37.132;2024-03-25T07:44:16;3.53;;;0.90;;
71395;SDS011;59888;55.814;37.132;2024-03-25T07:46:42;3.63;;;1.17;;
71395;SDS011;59888;55.814;37.132;2024-03-25T07:49:08;3.17;;;1.02;;
71395;SDS011;59888;55.814;37.132;2024-03-25T07:51:34;3.55;;;1.10;;
71395;SDS011;59888;55.814;37.132;2024-03-25T07:54:04;4.43;;;1.00;;
71395;SDS011;59888;55.814;37.132;2024-03-25T07:56:31;5.00;;;1.10;;
71395;SDS011;59888;55.814;37.132;2024-03-25T07:58:58;1.85;;;1.05;;
71395;SDS011;59888;55.814;37.132;2024-03-25T08:01:25;5.75;;;0.80;;
71395;SDS011;59888;55.814;37.132;2024-03-25T08:03:52;2.78;;;1.20;;
71395;SDS011;59888;55.814;37.132;2024-03-25T08:06:18;4.57;;;0.82;;
71395;SDS011;59888;55.814;37.132;2024-03-25T08:08:47;3.45;;;0.85;;
71395;SDS011;59888;55.814;37.132;2024-03-25T08:11:13;1.42;;;0.73;;
71395;SDS011;59888;55.814;37.132;2024-03-25T08:13:39;7.05;;;1.10;;
71395;SDS011;59888;55.814;37.132;2024-03-25T08:16:05;3.45;;;1.00;;
71395;SDS011;59888;55.814;37.132;2024-03-25T08:18:33;3.05;;;1.10;;
71395;SDS011;59888;55.814;37.132;2024-03-25T08:20:59;6.40;;;0.95;;
71395;SDS011;59888;55.814;37.132;2024-03-25T08:23:25;2.60;;;1.00;;
71395;SDS011;59888;55.814;37.132;2024-03-25T08:25:52;2.95;;;0.70;;
71395;SDS011;59888;55.814;37.132;2024-03-25T08:28:18;2.85;;;0.93;;
71395;SDS011;59888;55.814;37.132;2024-03-25T08:30:44;2.33;;;0.70;;
71395;SDS011;59888;55.814;37.132;2024-03-25T08:33:10;3.17;;;0.80;;
71395;SDS011;59888;55.814;37.132;2024-03-25T08:35:37;2.15;;;0.80;;
71395;SDS011;59888;55.814;37.132;2024-03-25T08:38:05;4.13;;;1.27;;
71395;SDS011;59888;55.814;37.132;2024-03-25T08:40:31;2.67;;;1.00;;
71395;SDS011;59888;55.814;37.132;2024-03-25T08:42:57;2.00;;;0.88;;
71395;SDS011;59888;55.814;37.132;2024-03-25T08:45:23;4.13;;;1.13;;
71395;SDS011;59888;55.814;37.132;2024-03-25T08:47:50;3.35;;;1.10;;
71395;SDS011;59888;55.814;37.132;2024-03-25T08:50:16;3.25;;;0.98;;
71395;SDS011;59888;55.814;37.132;2024-03-25T08:52:42;2.35;;;0.80;;
71395;SDS011;59888;55.814;37.132;2024-03-25T08:55:08;3.40;;;0.98;;
71395;SDS011;59888;55.814;37.132;2024-03-25T08:57:34;4.38;;;1.00;;
71395;SDS011;59888;55.814;37.132;2024-03-25T09:00:02;2.08;;;0.90;;
71395;SDS011;59888;55.814;37.132;2024-03-25T09:02:31;4.93;;;1.30;;
71395;SDS011;59888;55.814;37.132;2024-03-25T09:04:58;2.83;;;0.90;;
71395;SDS011;59888;55.814;37.132;2024-03-25T09:07:25;1.60;;;0.80;;
71395;SDS011;59888;55.814;37.132;2024-03-25T09:09:51;4.07;;;0.93;;
71395;SDS011;59888;55.814;37.132;2024-03-25T09:12:37;3.13;;;1.20;;
71395;SDS011;59888;55.814;37.132;2024-03-25T09:15:05;3.00;;;0.82;;
71395;SDS011;59888;55.814;37.132;2024-03-25T09:17:32;3.45;;;0.90;;
71395;SDS011;59888;55.814;37.132;2024-03-25T09:19:58;7.53;;;1.23;;
71395;SDS011;59888;55.814;37.132;2024-03-25T09:22:24;5.72;;;1.02;;
71395;SDS011;59888;55.814;37.132;2024-03-25T09:24:50;2.60;;;1.08;;
71395;SDS011;59888;55.814;37.132;2024-03-25T09:27:16;3.63;;;1.17;;
71395;SDS011;59888;55.814;37.132;2024-03-25T09:29:43;3.97;;;1.00;;
71395;SDS011;59888;55.814;37.132;2024-03-25T09:32:09;2.25;;;1.00;;
71395;SDS011;59888;55.814;37.132;2024-03-25T09:34:35;2.33;;;1.02;;
71395;SDS011;59888;55.814;37.132;2024-03-25T09:37:01;3.22;;;1.05;;
71395;SDS011;59888;55.814;37.132;2024-03-25T09:39:27;3.03;;;1.20;;
71395;SDS011;59888;55.814;37.132;2024-03-25T09:41:55;2.97;;;0.90;;
71395;SDS011;59888;55.814;37.132;2024-03-25T09:44:22;2.38;;;1.00;;
71395;SDS011;59888;55.814;37.132;2024-03-25T09:46:51;3.05;;;0.90;;
71395;SDS011;59888;55.814;37.132;2024-03-25T09:49:17;4.43;;;1.20;;
71395;SDS011;59888;55.814;37.132;2024-03-25T09:51:46;4.10;;;1.20;;
71395;SDS011;59888;55.814;37.132;2024-03-25T09:54:15;2.72;;;1.15;;
71395;SDS011;59888;55.814;37.132;2024-03-25T09:56:41;2.72;;;1.00;;
71395;SDS011;59888;55.814;37.132;2024-03-25T09:59:08;3.10;;;0.95;;
71395;SDS011;59888;55.814;37.132;2024-03-25T10:01:34;3.90;;;1.20;;
71395;SDS011;59888;55.814;37.132;2024-03-25T10:04:00;3.58;;;1.00;;
71395;SDS011;59888;55.814;37.132;2024-03-25T10:06:27;1.35;;;0.80;;
71395;SDS011;59888;55.814;37.132;2024-03-25T10:08:53;4.95;;;1.65;;
71395;SDS011;59888;55.814;37.132;2024-03-25T10:11:19;3.00;;;1.15;;
71395;SDS011;59888;55.814;37.132;2024-03-25T10:13:47;1.63;;;0.77;;
71395;SDS011;59888;55.814;37.132;2024-03-25T10:16:13;2.05;;;0.85;;
71395;SDS011;59888;55.814;37.132;2024-03-25T10:18:39;4.15;;;0.82;;
71395;SDS011;59888;55.814;37.132;2024-03-25T10:21:09;2.33;;;0.90;;
71395;SDS011;59888;55.814;37.132;2024-03-25T10:23:36;3.92;;;0.88;;
71395;SDS011;59888;55.814;37.132;2024-03-25T10:26:06;1.98;;;0.70;;
71395;SDS011;59888;55.814;37.132;2024-03-25T10:28:32;1.90;;;0.85;;
71395;SDS011;59888;55.814;37.132;2024-03-25T10:31:04;3.72;;;0.82;;
71395;SDS011;59888;55.814;37.132;2024-03-25T10:33:31;2.25;;;0.90;;
71395;SDS011;59888;55.814;37.132;2024-03-25T10:35:57;3.55;;;0.80;;
71395;SDS011;59888;55.814;37.132;2024-03-25T10:38:26;1.75;;;0.70;;
71395;SDS011;59888;55.814;37.132;2024-03-25T10:40:53;2.83;;;0.90;;
71395;SDS011;59888;55.814;37.132;2024-03-25T10:43:20;2.45;;;0.90;;
71395;SDS011;59888;55.814;37.132;2024-03-25T10:45:47;3.47;;;0.90;;
71395;SDS011;59888;55.814;37.132;2024-03-25T10:48:52;3.17;;;0.98;;
71395;SDS011;59888;55.814;37.132;2024-03-25T10:51:20;3.40;;;1.10;;
71395;SDS011;59888;55.814;37.132;2024-03-25T10:53:50;2.72;;;1.00;;
71395;SDS011;59888;55.814;37.132;2024-03-25T10:56:21;3.28;;;0.98;;
71395;SDS011;59888;55.814;37.132;2024-03-25T10:58:50;2.90;;;0.70;;
71395;SDS011;59888;55.814;37.132;2024-03-25T11:01:16;4.75;;;0.90;;
71395;SDS011;59888;55.814;37.132;2024-03-25T11:03:44;3.90;;;0.93;;
71395;SDS011;59888;55.814;37.132;2024-03-25T11:06:13;1.75;;;0.80;;
71395;SDS011;59888;55.814;37.132;2024-03-25T11:08:39;3.15;;;1.25;;
71395;SDS011;59888;55.814;37.132;2024-03-25T11:11:07;1.95;;;0.82;;
71395;SDS011;59888;55.814;37.132;2024-03-25T11:13:33;1.98;;;0.70;;
71395;SDS011;59888;55.814;37.132;2024-03-25T11:15:59;4.18;;;1.00;;
71395;SDS011;59888;55.814;37.132;2024-03-25T11:18:26;2.63;;;0.90;;
71395;SDS011;59888;55.814;37.132;2024-03-25T11:21:02;5.93;;;0.82;;
71395;SDS011;59888;55.814;37.132;2024-03-25T11:23:51;2.83;;;0.93;;
71395;SDS011;59888;55.814;37.132;2024-03-25T11:26:18;2.88;;;0.82;;
71395;SDS011;59888;55.814;37.132;2024-03-25T11:28:45;1.48;;;0.73;;
71395;SDS011;59888;55.814;37.132;2024-03-25T11:31:12;4.00;;;0.90;;
71395;SDS011;59888;55.814;37.132;2024-03-25T11:33:38;3.67;;;1.00;;
71395;SDS011;59888;55.814;37.132;2024-03-25T11:36:05;4.05;;;1.00;;
71395;SDS011;59888;55.814;37.132;2024-03-25T11:38:31;4.82;;;1.13;;
71395;SDS011;59888;55.814;37.132;2024-03-25T11:40:58;3.28;;;1.10;;
71395;SDS011;59888;55.814;37.132;2024-03-25T11:43:24;2.80;;;1.00;;
71395;SDS011;59888;55.814;37.132;2024-03-25T11:45:50;3.88;;;1.00;;
71395;SDS011;59888;55.814;37.132;2024-03-25T11:48:19;3.90;;;1.30;;
71395;SDS011;59888;55.814;37.132;2024-03-25T11:50:45;3.28;;;0.93;;
71395;SDS011;59888;55.814;37.132;2024-03-25T11:53:17;3.70;;;1.33;;
71395;SDS011;59888;55.814;37.132;2024-03-25T11:55:47;2.20;;;0.80;;
71395;SDS011;59888;55.814;37.132;2024-03-25T11:58:14;4.65;;;0.98;;
71395;SDS011;59888;55.814;37.132;2024-03-25T12:00:47;3.00;;;0.77;;
71395;SDS011;59888;55.814;37.132;2024-03-25T12:03:14;4.95;;;0.93;;
71395;SDS011;59888;55.814;37.132;2024-03-25T12:05:44;3.35;;;1.15;;
71395;SDS011;59888;55.814;37.132;2024-03-25T12:08:11;3.70;;;1.20;;
71395;SDS011;59888;55.814;37.132;2024-03-25T12:10:37;2.85;;;0.93;;
71395;SDS011;59888;55.814;37.132;2024-03-25T12:13:23;5.07;;;1.20;;
71395;SDS011;59888;55.814;37.132;2024-03-25T12:15:51;2.85;;;0.90;;
71395;SDS011;59888;55.814;37.132;2024-03-25T12:18:17;4.57;;;1.00;;
71395;SDS011;59888;55.814;37.132;2024-03-25T12:20:47;2.13;;;0.82;;
71395;SDS011;59888;55.814;37.132;2024-03-25T12:23:14;5.78;;;1.40;;
71395;SDS011;59888;55.814;37.132;2024-03-25T12:25:40;2.05;;;0.90;;
71395;SDS011;59888;55.814;37.132;2024-03-25T12:28:10;2.85;;;1.00;;
71395;SDS011;59888;55.814;37.132;2024-03-25T12:30:49;3.60;;;1.30;;
71395;SDS011;59888;55.814;37.132;2024-03-25T12:33:20;6.90;;;1.25;;
71395;SDS011;59888;55.814;37.132;2024-03-25T12:35:48;5.50;;;1.00;;
71395;SDS011;59888;55.814;37.132;2024-03-25T12:38:28;2.45;;;0.93;;
71395;SDS011;59888;55.814;37.132;2024-03-25T12:43:41;3.80;;;1.02;;
71395;SDS011;59888;55.814;37.132;2024-03-25T12:46:09;3.55;;;1.10;;
71395;SDS011;59888;55.814;37.132;2024-03-25T12:48:36;3.70;;;1.20;;
71395;SDS011;59888;55.814;37.132;2024-03-25T12:51:11;3.17;;;1.15;;
71395;SDS011;59888;55.814;37.132;2024-03-25T12:53:39;6.13;;;2.30;;
71395;SDS011;59888;55.814;37.132;2024-03-25T12:56:05;2.40;;;1.20;;
71395;SDS011;59888;55.814;37.132;2024-03-25T12:58:32;3.47;;;1.00;;
71395;SDS011;59888;55.814;37.132;2024-03-25T13:00:58;2.33;;;0.80;;
71395;SDS011;59888;55.814;37.132;2024-03-25T13:03:24;3.33;;;1.00;;
71395;SDS011;59888;55.814;37.132;2024-03-25T13:05:50;2.67;;;1.02;;
71395;SDS011;59888;55.814;37.132;2024-03-25T13:08:16;1.65;;;0.90;;
71395;SDS011;59888;55.814;37.132;2024-03-25T13:10:42;4.28;;;1.17;;
71395;SDS011;59888;55.814;37.132;2024-03-25T13:13:09;4.30;;;1.10;;
71395;SDS011;59888;55.814;37.132;2024-03-25T13:15:35;4.15;;;1.30;;
71395;SDS011;59888;55.814;37.132;2024-03-25T13:18:01;2.47;;;1.30;;
71395;SDS011;59888;55.814;37.132;2024-03-25T13:20:28;3.78;;;1.40;;
71395;SDS011;59888;55.814;37.132;2024-03-25T13:22:54;3.45;;;1.23;;
71395;SDS011;59888;55.814;37.132;2024-03-25T13:25:28;2.83;;;1.17;;
71395;SDS011;59888;55.814;37.132;2024-03-25T13:27:54;3.15;;;1.08;;
71395;SDS011;59888;55.814;37.132;2024-03-25T13:30:20;2.78;;;1.20;;
71395;SDS011;59888;55.814;37.132;2024-03-25T13:32:46;1.92;;;1.00;;
71395;SDS011;59888;55.814;37.132;2024-03-25T13:35:12;3.55;;;1.35;;
71395;SDS011;59888;55.814;37.132;2024-03-25T13:37:38;3.85;;;1.13;;
71395;SDS011;59888;55.814;37.132;2024-03-25T13:40:04;2.38;;;1.10;;
71395;SDS011;59888;55.814;37.132;2024-03-25T13:42:32;3.97;;;1.15;;
71395;SDS011;59888;55.814;37.132;2024-03-25T13:44:58;2.33;;;1.00;;
71395;SDS011;59888;55.814;37.132;2024-03-25T13:47:24;2.92;;;1.27;;
71395;SDS011;59888;55.814;37.132;2024-03-25T13:49:59;1.95;;;1.00;;
71395;SDS011;59888;55.814;37.132;2024-03-25T13:52:35;2.30;;;1.33;;
71395;SDS011;59888;55.814;37.132;2024-03-25T13:55:01;2.08;;;1.10;;
71395;SDS011;59888;55.814;37.132;2024-03-25T13:57:30;3.83;;;1.35;;
71395;SDS011;59888;55.814;37.132;2024-03-25T13:59:57;5.82;;;1.38;;
71395;SDS011;59888;55.814;37.132;2024-03-25T14:02:23;2.75;;;1.27;;
71395;SDS011;59888;55.814;37.132;2024-03-25T14:04:49;4.53;;;1.30;;
71395;SDS011;59888;55.814;37.132;2024-03-25T14:07:16;3.88;;;1.13;;
71395;SDS011;59888;55.814;37.132;2024-03-25T14:09:43;3.00;;;1.30;;
71395;SDS011;59888;55.814;37.132;2024-03-25T14:12:09;4.07;;;1.40;;
71395;SDS011;59888;55.814;37.132;2024-03-25T14:14:36;3.08;;;1.25;;
71395;SDS011;59888;55.814;37.132;2024-03-25T14:17:02;3.92;;;1.50;;
71395;SDS011;59888;55.814;37.132;2024-03-25T14:19:28;3.47;;;1.42;;
71395;SDS011;59888;55.814;37.132;2024-03-25T14:21:54;2.95;;;1.33;;
71395;SDS011;59888;55.814;37.132;2024-03-25T14:24:20;2.90;;;1.45;;
71395;SDS011;59888;55.814;37.132;2024-03-25T14:26:46;2.40;;;1.20;;
71395;SDS011;59888;55.814;37.132;2024-03-25T14:29:12;2.58;;;1.10;;
71395;SDS011;59888;55.814;37.132;2024-03-25T14:31:39;5.72;;;1.17;;
71395;SDS011;59888;55.814;37.132;2024-03-25T14:34:05;3.70;;;1.10;;
71395;SDS011;59888;55.814;37.132;2024-03-25T14:36:31;2.80;;;1.35;;
71395;SDS011;59888;55.814;37.132;2024-03-25T14:38:58;3.03;;;1.50;;
71395;SDS011;59888;55.814;37.132;2024-03-25T14:41:24;3.90;;;1.20;;